sensor_id;sensor_type;location;lat;lon;timestamp;pressure;altitude;pressure_sealevel;temperature;humidity
68376;BME280;55318;52.068;5.188;2023-06-19T00:00:13;100802.0;;;24.81;49.98
68376;BME280;55318;52.068;5.188;2023-06-19T00:01:49;100805.0;;;24.75;50.24
68376;BME280;55318;52.068;5.188;2023-06-19T00:05:02;100803.0;;;24.69;50.53
68376;BME280;55318;52.068;5.188;2023-06-19T00:06:39;100802.0;;;24.61;51.02
68376;BME280;55318;52.068;5.188;2023-06-19T00:08:15;100806.0;;;24.65;51.27
68376;BME280;55318;52.068;5.188;2023-06-19T00:11:28;100807.0;;;24.41;51.92
68376;BME280;55318;52.068;5.188;2023-06-19T00:13:05;100810.0;;;24.42;52.15
68376;BME280;55318;52.068;5.188;2023-06-19T00:14:41;100807.0;;;24.41;52.37
68376;BME280;55318;52.068;5.188;2023-06-19T00:17:56;100808.0;;;24.53;52.43
68376;BME280;55318;52.068;5.188;2023-06-19T00:19:33;100807.0;;;24.53;52.44
68376;BME280;55318;52.068;5.188;2023-06-19T00:21:09;100806.0;;;24.5;52.78
68376;BME280;55318;52.068;5.188;2023-06-19T00:22:46;100812.0;;;24.48;53.09
68376;BME280;55318;52.068;5.188;2023-06-19T00:25:59;100810.0;;;24.41;53.37
68376;BME280;55318;52.068;5.188;2023-06-19T00:27:36;100807.0;;;24.38;53.64
68376;BME280;55318;52.068;5.188;2023-06-19T00:29:12;100806.0;;;24.4;53.89
68376;BME280;55318;52.068;5.188;2023-06-19T00:32:24;100815.0;;;24.49;54.15
68376;BME280;55318;52.068;5.188;2023-06-19T00:34:00;100810.0;;;24.57;53.68
68376;BME280;55318;52.068;5.188;2023-06-19T00:35:37;100814.0;;;24.51;54.14
68376;BME280;55318;52.068;5.188;2023-06-19T00:38:49;100821.0;;;24.28;54.62
68376;BME280;55318;52.068;5.188;2023-06-19T00:40:27;100816.0;;;24.26;55.33
68376;BME280;55318;52.068;5.188;2023-06-19T00:42:04;100819.0;;;24.31;55.24
68376;BME280;55318;52.068;5.188;2023-06-19T00:43:41;100820.0;;;24.14;56.04
68376;BME280;55318;52.068;5.188;2023-06-19T00:46:58;100820.0;;;24.18;56.52
68376;BME280;55318;52.068;5.188;2023-06-19T00:48:35;100821.0;;;24.13;56.77
68376;BME280;55318;52.068;5.188;2023-06-19T00:50:12;100821.0;;;24.06;57.16
68376;BME280;55318;52.068;5.188;2023-06-19T00:53:28;100828.0;;;23.82;58.28
68376;BME280;55318;52.068;5.188;2023-06-19T00:55:08;100827.0;;;23.8;58.84
68376;BME280;55318;52.068;5.188;2023-06-19T00:56:45;100825.0;;;23.71;59.44
68376;BME280;55318;52.068;5.188;2023-06-19T00:58:21;100828.0;;;23.73;59.45
68376;BME280;55318;52.068;5.188;2023-06-19T01:01:35;100828.0;;;23.57;60.17
68376;BME280;55318;52.068;5.188;2023-06-19T01:03:12;100839.0;;;23.65;60.25
68376;BME280;55318;52.068;5.188;2023-06-19T01:04:49;100836.0;;;23.62;60.5
68376;BME280;55318;52.068;5.188;2023-06-19T01:08:29;100849.0;;;23.6;60.73
68376;BME280;55318;52.068;5.188;2023-06-19T01:10:30;100846.0;;;23.53;61.2
68376;BME280;55318;52.068;5.188;2023-06-19T01:12:10;100846.0;;;23.53;61.39
68376;BME280;55318;52.068;5.188;2023-06-19T01:13:56;100852.0;;;23.47;61.86
68376;BME280;55318;52.068;5.188;2023-06-19T01:15:35;100857.0;;;23.49;62.17
68376;BME280;55318;52.068;5.188;2023-06-19T01:17:14;100857.0;;;23.26;62.96
68376;BME280;55318;52.068;5.188;2023-06-19T01:20:30;100860.0;;;23.19;63.49
68376;BME280;55318;52.068;5.188;2023-06-19T01:22:06;100867.0;;;23.2;63.8
68376;BME280;55318;52.068;5.188;2023-06-19T01:23:42;100872.0;;;23.03;64.77
68376;BME280;55318;52.068;5.188;2023-06-19T01:26:56;100872.0;;;23.0;65.25
68376;BME280;55318;52.068;5.188;2023-06-19T01:28:34;100876.0;;;23.01;65.55
68376;BME280;55318;52.068;5.188;2023-06-19T01:30:12;100876.0;;;22.95;66.13
68376;BME280;55318;52.068;5.188;2023-06-19T01:31:53;100873.0;;;22.97;66.33
68376;BME280;55318;52.068;5.188;2023-06-19T01:35:17;100873.0;;;23.0;66.42
68376;BME280;55318;52.068;5.188;2023-06-19T01:36:58;100868.0;;;22.84;67.16
68376;BME280;55318;52.068;5.188;2023-06-19T01:38:36;100873.0;;;22.81;67.77
68376;BME280;55318;52.068;5.188;2023-06-19T01:40:14;100868.0;;;22.82;68.02
68376;BME280;55318;52.068;5.188;2023-06-19T01:43:30;100866.0;;;22.67;69.08
68376;BME280;55318;52.068;5.188;2023-06-19T01:45:08;100870.0;;;22.62;69.81
68376;BME280;55318;52.068;5.188;2023-06-19T01:46:47;100860.0;;;22.66;69.95
68376;BME280;55318;52.068;5.188;2023-06-19T01:48:24;100864.0;;;22.63;70.44
68376;BME280;55318;52.068;5.188;2023-06-19T01:51:38;100870.0;;;22.63;70.58
68376;BME280;55318;52.068;5.188;2023-06-19T01:53:15;100865.0;;;22.58;71.03
68376;BME280;55318;52.068;5.188;2023-06-19T01:54:52;100866.0;;;22.71;70.72
68376;BME280;55318;52.068;5.188;2023-06-19T01:58:05;100871.0;;;22.69;71.0
68376;BME280;55318;52.068;5.188;2023-06-19T01:59:42;100874.0;;;22.69;71.11
68376;BME280;55318;52.068;5.188;2023-06-19T02:01:18;100874.0;;;22.56;71.66
68376;BME280;55318;52.068;5.188;2023-06-19T02:04:32;100868.0;;;22.59;71.77
68376;BME280;55318;52.068;5.188;2023-06-19T02:06:09;100867.0;;;22.7;71.47
68376;BME280;55318;52.068;5.188;2023-06-19T02:07:45;100869.0;;;22.67;71.61
68376;BME280;55318;52.068;5.188;2023-06-19T02:09:21;100870.0;;;22.61;71.89
68376;BME280;55318;52.068;5.188;2023-06-19T02:12:34;100872.0;;;22.68;71.8
68376;BME280;55318;52.068;5.188;2023-06-19T02:14:10;100875.0;;;22.59;72.08
68376;BME280;55318;52.068;5.188;2023-06-19T02:15:46;100882.0;;;22.56;72.37
68376;BME280;55318;52.068;5.188;2023-06-19T02:18:58;100875.0;;;22.47;72.8
68376;BME280;55318;52.068;5.188;2023-06-19T02:20:35;100878.0;;;22.59;72.52
68376;BME280;55318;52.068;5.188;2023-06-19T02:22:11;100885.0;;;22.61;72.56
68376;BME280;55318;52.068;5.188;2023-06-19T02:25:24;100882.0;;;22.55;72.92
68376;BME280;55318;52.068;5.188;2023-06-19T02:27:00;100881.0;;;22.53;72.88
68376;BME280;55318;52.068;5.188;2023-06-19T02:28:37;100882.0;;;22.36;73.55
68376;BME280;55318;52.068;5.188;2023-06-19T02:30:13;100880.0;;;22.49;73.27
68376;BME280;55318;52.068;5.188;2023-06-19T02:33:27;100885.0;;;22.52;73.33
68376;BME280;55318;52.068;5.188;2023-06-19T02:35:05;100880.0;;;22.46;73.66
68376;BME280;55318;52.068;5.188;2023-06-19T02:36:44;100881.0;;;22.45;73.73
68376;BME280;55318;52.068;5.188;2023-06-19T02:39:57;100877.0;;;22.41;74.03
68376;BME280;55318;52.068;5.188;2023-06-19T02:41:33;100885.0;;;22.43;73.86
68376;BME280;55318;52.068;5.188;2023-06-19T02:43:10;100894.0;;;22.41;74.05
68376;BME280;55318;52.068;5.188;2023-06-19T02:46:23;100892.0;;;22.36;74.36
68376;BME280;55318;52.068;5.188;2023-06-19T02:47:59;100902.0;;;22.35;74.49
68376;BME280;55318;52.068;5.188;2023-06-19T02:49:35;100898.0;;;22.4;74.39
68376;BME280;55318;52.068;5.188;2023-06-19T02:51:11;100899.0;;;22.29;74.97
68376;BME280;55318;52.068;5.188;2023-06-19T02:54:24;100903.0;;;22.25;75.27
68376;BME280;55318;52.068;5.188;2023-06-19T02:56:01;100905.0;;;22.29;75.22
68376;BME280;55318;52.068;5.188;2023-06-19T02:57:38;100905.0;;;22.39;74.99
68376;BME280;55318;52.068;5.188;2023-06-19T03:00:50;100903.0;;;22.48;74.69
68376;BME280;55318;52.068;5.188;2023-06-19T03:02:26;100910.0;;;22.51;74.59
68376;BME280;55318;52.068;5.188;2023-06-19T03:04:03;100902.0;;;22.4;75.19
68376;BME280;55318;52.068;5.188;2023-06-19T03:07:16;100902.0;;;22.32;75.56
68376;BME280;55318;52.068;5.188;2023-06-19T03:08:52;100902.0;;;22.26;76.06
68376;BME280;55318;52.068;5.188;2023-06-19T03:10:28;100913.0;;;22.33;75.77
68376;BME280;55318;52.068;5.188;2023-06-19T03:12:06;100906.0;;;22.4;75.61
68376;BME280;55318;52.068;5.188;2023-06-19T03:15:24;100905.0;;;22.41;75.61
68376;BME280;55318;52.068;5.188;2023-06-19T03:17:00;100914.0;;;22.41;75.95
68376;BME280;55318;52.068;5.188;2023-06-19T03:18:36;100913.0;;;22.26;76.77
68376;BME280;55318;52.068;5.188;2023-06-19T03:21:48;100919.0;;;22.15;77.5
68376;BME280;55318;52.068;5.188;2023-06-19T03:23:25;100920.0;;;22.3;77.41
68376;BME280;55318;52.068;5.188;2023-06-19T03:25:01;100916.0;;;22.32;77.41
68376;BME280;55318;52.068;5.188;2023-06-19T03:28:13;100928.0;;;22.23;77.97
68376;BME280;55318;52.068;5.188;2023-06-19T03:29:49;100934.0;;;22.08;78.77
68376;BME280;55318;52.068;5.188;2023-06-19T03:31:26;100937.0;;;22.13;79.06
68376;BME280;55318;52.068;5.188;2023-06-19T03:33:02;100930.0;;;22.11;79.69
68376;BME280;55318;52.068;5.188;2023-06-19T03:36:14;100936.0;;;22.14;80.02
68376;BME280;55318;52.068;5.188;2023-06-19T03:37:50;100937.0;;;22.13;80.58
68376;BME280;55318;52.068;5.188;2023-06-19T03:39:26;100945.0;;;21.84;82.56
68376;BME280;55318;52.068;5.188;2023-06-19T03:42:41;100943.0;;;21.87;82.97
68376;BME280;55318;52.068;5.188;2023-06-19T03:44:17;100946.0;;;21.78;83.75
68376;BME280;55318;52.068;5.188;2023-06-19T03:45:53;100947.0;;;21.84;83.64
68376;BME280;55318;52.068;5.188;2023-06-19T03:49:06;100957.0;;;21.75;84.21
68376;BME280;55318;52.068;5.188;2023-06-19T03:50:43;100953.0;;;21.85;83.87
68376;BME280;55318;52.068;5.188;2023-06-19T03:52:20;100963.0;;;21.86;83.84
68376;BME280;55318;52.068;5.188;2023-06-19T03:53:57;100966.0;;;21.9;83.96
68376;BME280;55318;52.068;5.188;2023-06-19T03:57:11;100968.0;;;21.91;83.82
68376;BME280;55318;52.068;5.188;2023-06-19T03:58:47;100971.0;;;21.9;83.6
68376;BME280;55318;52.068;5.188;2023-06-19T04:00:24;100968.0;;;21.93;83.44
68376;BME280;55318;52.068;5.188;2023-06-19T04:03:37;100972.0;;;21.93;83.4
68376;BME280;55318;52.068;5.188;2023-06-19T04:05:13;100972.0;;;22.01;83.01
68376;BME280;55318;52.068;5.188;2023-06-19T04:06:50;100974.0;;;21.85;83.54
68376;BME280;55318;52.068;5.188;2023-06-19T04:10:03;100975.0;;;21.9;83.23
68376;BME280;55318;52.068;5.188;2023-06-19T04:11:40;100976.0;;;21.89;83.27
68376;BME280;55318;52.068;5.188;2023-06-19T04:13:16;100977.0;;;21.88;83.38
68376;BME280;55318;52.068;5.188;2023-06-19T04:14:52;100980.0;;;21.87;83.43
68376;BME280;55318;52.068;5.188;2023-06-19T04:18:06;100991.0;;;21.86;83.65
68376;BME280;55318;52.068;5.188;2023-06-19T04:19:43;100992.0;;;21.69;84.59
68376;BME280;55318;52.068;5.188;2023-06-19T04:21:19;100991.0;;;21.76;84.42
68376;BME280;55318;52.068;5.188;2023-06-19T04:24:34;100992.0;;;21.8;84.48
68376;BME280;55318;52.068;5.188;2023-06-19T04:26:11;100999.0;;;21.56;85.52
68376;BME280;55318;52.068;5.188;2023-06-19T04:27:47;101001.0;;;21.69;84.89
68376;BME280;55318;52.068;5.188;2023-06-19T04:30:59;101009.0;;;21.8;84.2
68376;BME280;55318;52.068;5.188;2023-06-19T04:32:36;101012.0;;;21.74;84.06
68376;BME280;55318;52.068;5.188;2023-06-19T04:34:13;101017.0;;;21.66;83.76
68376;BME280;55318;52.068;5.188;2023-06-19T04:35:52;101022.0;;;21.71;83.48
68376;BME280;55318;52.068;5.188;2023-06-19T04:39:05;101018.0;;;21.75;82.98
68376;BME280;55318;52.068;5.188;2023-06-19T04:40:42;101014.0;;;21.77;81.94
68376;BME280;55318;52.068;5.188;2023-06-19T04:42:20;101017.0;;;21.8;81.77
68376;BME280;55318;52.068;5.188;2023-06-19T04:45:34;101024.0;;;21.77;81.56
68376;BME280;55318;52.068;5.188;2023-06-19T04:47:11;101031.0;;;21.76;81.22
68376;BME280;55318;52.068;5.188;2023-06-19T04:48:49;101032.0;;;21.83;80.42
68376;BME280;55318;52.068;5.188;2023-06-19T04:50:26;101030.0;;;21.78;80.44
68376;BME280;55318;52.068;5.188;2023-06-19T04:53:40;101040.0;;;21.78;80.27
68376;BME280;55318;52.068;5.188;2023-06-19T04:55:16;101037.0;;;21.68;80.27
68376;BME280;55318;52.068;5.188;2023-06-19T04:56:52;101042.0;;;21.67;80.09
68376;BME280;55318;52.068;5.188;2023-06-19T05:01:43;101041.0;;;21.77;79.97
68376;BME280;55318;52.068;5.188;2023-06-19T05:03:20;101043.0;;;21.63;80.02
68376;BME280;55318;52.068;5.188;2023-06-19T05:06:34;101050.0;;;21.61;80.02
68376;BME280;55318;52.068;5.188;2023-06-19T05:08:12;101046.0;;;21.75;79.58
68376;BME280;55318;52.068;5.188;2023-06-19T05:09:49;101050.0;;;21.7;79.47
68376;BME280;55318;52.068;5.188;2023-06-19T05:11:26;101049.0;;;21.69;78.91
68376;BME280;55318;52.068;5.188;2023-06-19T05:14:39;101055.0;;;21.5;79.05
68376;BME280;55318;52.068;5.188;2023-06-19T05:16:16;101050.0;;;21.65;78.58
68376;BME280;55318;52.068;5.188;2023-06-19T05:17:53;101055.0;;;21.6;78.61
68376;BME280;55318;52.068;5.188;2023-06-19T05:21:07;101062.0;;;21.58;78.33
68376;BME280;55318;52.068;5.188;2023-06-19T05:22:44;101060.0;;;21.51;78.63
68376;BME280;55318;52.068;5.188;2023-06-19T05:24:21;101061.0;;;21.67;78.22
68376;BME280;55318;52.068;5.188;2023-06-19T05:25:58;101058.0;;;21.72;78.16
68376;BME280;55318;52.068;5.188;2023-06-19T05:29:13;101065.0;;;21.77;77.58
68376;BME280;55318;52.068;5.188;2023-06-19T05:30:49;101065.0;;;21.78;77.91
68376;BME280;55318;52.068;5.188;2023-06-19T05:32:25;101067.0;;;21.87;77.44
68376;BME280;55318;52.068;5.188;2023-06-19T05:35:37;101073.0;;;21.85;77.62
68376;BME280;55318;52.068;5.188;2023-06-19T05:37:16;101075.0;;;21.76;77.38
68376;BME280;55318;52.068;5.188;2023-06-19T05:38:52;101080.0;;;21.72;77.47
68376;BME280;55318;52.068;5.188;2023-06-19T05:42:06;101085.0;;;21.69;78.19
68376;BME280;55318;52.068;5.188;2023-06-19T05:43:43;101083.0;;;21.7;77.59
68376;BME280;55318;52.068;5.188;2023-06-19T05:45:20;101090.0;;;21.62;77.97
68376;BME280;55318;52.068;5.188;2023-06-19T05:46:56;101096.0;;;21.68;77.95
68376;BME280;55318;52.068;5.188;2023-06-19T05:50:09;101098.0;;;21.77;78.09
68376;BME280;55318;52.068;5.188;2023-06-19T05:51:46;101100.0;;;21.68;78.03
68376;BME280;55318;52.068;5.188;2023-06-19T05:53:22;101105.0;;;21.8;77.72
68376;BME280;55318;52.068;5.188;2023-06-19T05:56:35;101101.0;;;21.74;77.34
68376;BME280;55318;52.068;5.188;2023-06-19T05:58:12;101103.0;;;21.67;77.06
68376;BME280;55318;52.068;5.188;2023-06-19T05:59:50;101103.0;;;21.7;76.63
68376;BME280;55318;52.068;5.188;2023-06-19T06:03:04;101101.0;;;21.6;76.75
68376;BME280;55318;52.068;5.188;2023-06-19T06:04:41;101105.0;;;21.76;76.42
68376;BME280;55318;52.068;5.188;2023-06-19T06:06:17;101110.0;;;21.85;76.11
68376;BME280;55318;52.068;5.188;2023-06-19T06:07:55;101105.0;;;21.61;75.62
68376;BME280;55318;52.068;5.188;2023-06-19T06:11:09;101107.0;;;21.69;74.81
68376;BME280;55318;52.068;5.188;2023-06-19T06:12:46;101109.0;;;21.96;74.91
68376;BME280;55318;52.068;5.188;2023-06-19T06:14:25;101115.0;;;22.01;74.2
68376;BME280;55318;52.068;5.188;2023-06-19T06:17:37;101126.0;;;22.06;74.37
68376;BME280;55318;52.068;5.188;2023-06-19T06:19:15;101121.0;;;21.86;74.02
68376;BME280;55318;52.068;5.188;2023-06-19T06:20:52;101127.0;;;21.95;74.08
68376;BME280;55318;52.068;5.188;2023-06-19T06:22:29;101130.0;;;21.96;73.69
68376;BME280;55318;52.068;5.188;2023-06-19T06:25:43;101135.0;;;21.92;74.16
68376;BME280;55318;52.068;5.188;2023-06-19T06:27:20;101139.0;;;21.92;73.61
68376;BME280;55318;52.068;5.188;2023-06-19T06:28:56;101138.0;;;21.88;73.59
68376;BME280;55318;52.068;5.188;2023-06-19T06:32:10;101139.0;;;21.93;73.72
68376;BME280;55318;52.068;5.188;2023-06-19T06:33:48;101138.0;;;21.95;74.05
68376;BME280;55318;52.068;5.188;2023-06-19T06:35:25;101140.0;;;21.87;73.77
68376;BME280;55318;52.068;5.188;2023-06-19T06:40:16;101140.0;;;21.96;74.05
68376;BME280;55318;52.068;5.188;2023-06-19T06:41:54;101151.0;;;21.97;73.89
68376;BME280;55318;52.068;5.188;2023-06-19T06:43:31;101148.0;;;21.85;73.59
68376;BME280;55318;52.068;5.188;2023-06-19T06:46:46;101152.0;;;21.99;73.92
68376;BME280;55318;52.068;5.188;2023-06-19T06:48:23;101155.0;;;22.06;73.78
68376;BME280;55318;52.068;5.188;2023-06-19T06:50:00;101158.0;;;22.15;72.87
68376;BME280;55318;52.068;5.188;2023-06-19T06:53:14;101161.0;;;22.09;72.72
68376;BME280;55318;52.068;5.188;2023-06-19T06:54:51;101162.0;;;22.26;73.08
68376;BME280;55318;52.068;5.188;2023-06-19T06:56:27;101167.0;;;22.31;73.58
68376;BME280;55318;52.068;5.188;2023-06-19T06:58:04;101165.0;;;22.15;73.11
68376;BME280;55318;52.068;5.188;2023-06-19T07:01:18;101171.0;;;22.11;73.63
68376;BME280;55318;52.068;5.188;2023-06-19T07:02:54;101183.0;;;22.21;73.47
68376;BME280;55318;52.068;5.188;2023-06-19T07:04:31;101180.0;;;22.02;74.22
68376;BME280;55318;52.068;5.188;2023-06-19T07:07:45;101191.0;;;22.07;73.91
68376;BME280;55318;52.068;5.188;2023-06-19T07:09:21;101193.0;;;22.13;74.05
68376;BME280;55318;52.068;5.188;2023-06-19T07:10:59;101196.0;;;22.04;73.55
68376;BME280;55318;52.068;5.188;2023-06-19T07:14:20;101202.0;;;22.14;72.45
68376;BME280;55318;52.068;5.188;2023-06-19T07:15:56;101209.0;;;22.05;72.94
68376;BME280;55318;52.068;5.188;2023-06-19T07:17:33;101210.0;;;22.04;72.59
68376;BME280;55318;52.068;5.188;2023-06-19T07:19:09;101220.0;;;21.93;72.12
68376;BME280;55318;52.068;5.188;2023-06-19T07:22:23;101210.0;;;22.05;71.69
68376;BME280;55318;52.068;5.188;2023-06-19T07:24:00;101213.0;;;22.25;70.7
68376;BME280;55318;52.068;5.188;2023-06-19T07:25:37;101208.0;;;22.31;69.99
68376;BME280;55318;52.068;5.188;2023-06-19T07:28:51;101215.0;;;22.2;69.03
68376;BME280;55318;52.068;5.188;2023-06-19T07:30:28;101217.0;;;22.37;70.22
68376;BME280;55318;52.068;5.188;2023-06-19T07:32:06;101216.0;;;22.33;70.09
68376;BME280;55318;52.068;5.188;2023-06-19T07:33:43;101216.0;;;22.31;70.36
68376;BME280;55318;52.068;5.188;2023-06-19T07:36:56;101220.0;;;22.36;71.27
68376;BME280;55318;52.068;5.188;2023-06-19T07:38:32;101217.0;;;22.42;71.94
68376;BME280;55318;52.068;5.188;2023-06-19T07:40:09;101220.0;;;22.49;71.23
68376;BME280;55318;52.068;5.188;2023-06-19T07:43:24;101222.0;;;22.55;71.19
68376;BME280;55318;52.068;5.188;2023-06-19T07:45:01;101228.0;;;22.64;70.44
68376;BME280;55318;52.068;5.188;2023-06-19T07:46:37;101234.0;;;22.68;70.16
68376;BME280;55318;52.068;5.188;2023-06-19T07:48:14;101232.0;;;22.7;70.33
68376;BME280;55318;52.068;5.188;2023-06-19T07:51:28;101232.0;;;22.57;69.62
68376;BME280;55318;52.068;5.188;2023-06-19T07:53:05;101231.0;;;22.6;71.17
68376;BME280;55318;52.068;5.188;2023-06-19T07:54:51;101237.0;;;22.55;71.12
68376;BME280;55318;52.068;5.188;2023-06-19T07:58:10;101232.0;;;22.49;70.61
68376;BME280;55318;52.068;5.188;2023-06-19T07:59:48;101238.0;;;22.59;71.22
68376;BME280;55318;52.068;5.188;2023-06-19T08:01:26;101241.0;;;22.53;69.66
68376;BME280;55318;52.068;5.188;2023-06-19T08:03:03;101239.0;;;22.52;69.36
68376;BME280;55318;52.068;5.188;2023-06-19T08:06:17;101240.0;;;22.52;69.83
68376;BME280;55318;52.068;5.188;2023-06-19T08:07:53;101242.0;;;22.53;70.31
68376;BME280;55318;52.068;5.188;2023-06-19T08:09:32;101247.0;;;22.59;70.77
68376;BME280;55318;52.068;5.188;2023-06-19T08:12:44;101245.0;;;22.47;70.25
68376;BME280;55318;52.068;5.188;2023-06-19T08:14:21;101249.0;;;22.48;70.34
68376;BME280;55318;52.068;5.188;2023-06-19T08:15:57;101248.0;;;22.4;70.12
68376;BME280;55318;52.068;5.188;2023-06-19T08:17:33;101251.0;;;22.68;69.94
68376;BME280;55318;52.068;5.188;2023-06-19T08:20:46;101255.0;;;22.96;69.27
68376;BME280;55318;52.068;5.188;2023-06-19T08:22:22;101252.0;;;22.89;68.55
68376;BME280;55318;52.068;5.188;2023-06-19T08:23:58;101264.0;;;22.85;69.09
68376;BME280;55318;52.068;5.188;2023-06-19T08:27:10;101265.0;;;22.89;69.39
68376;BME280;55318;52.068;5.188;2023-06-19T08:28:46;101266.0;;;23.01;68.36
68376;BME280;55318;52.068;5.188;2023-06-19T08:30:23;101269.0;;;22.83;68.27
68376;BME280;55318;52.068;5.188;2023-06-19T08:33:35;101275.0;;;22.85;68.91
68376;BME280;55318;52.068;5.188;2023-06-19T08:35:11;101284.0;;;22.95;69.52
68376;BME280;55318;52.068;5.188;2023-06-19T08:36:47;101286.0;;;22.78;68.55
68376;BME280;55318;52.068;5.188;2023-06-19T08:38:23;101288.0;;;22.79;68.36
68376;BME280;55318;52.068;5.188;2023-06-19T08:41:36;101289.0;;;22.67;69.12
68376;BME280;55318;52.068;5.188;2023-06-19T08:43:13;101293.0;;;22.72;69.22
68376;BME280;55318;52.068;5.188;2023-06-19T08:44:50;101297.0;;;22.73;68.91
68376;BME280;55318;52.068;5.188;2023-06-19T08:48:03;101302.0;;;22.77;68.62
68376;BME280;55318;52.068;5.188;2023-06-19T08:51:16;101301.0;;;22.7;67.98
68376;BME280;55318;52.068;5.188;2023-06-19T08:54:28;101310.0;;;22.79;69.02
68376;BME280;55318;52.068;5.188;2023-06-19T08:56:04;101310.0;;;22.83;68.77
68376;BME280;55318;52.068;5.188;2023-06-19T08:57:41;101305.0;;;22.67;69.2
68376;BME280;55318;52.068;5.188;2023-06-19T09:00:54;101299.0;;;22.86;69.81
68376;BME280;55318;52.068;5.188;2023-06-19T09:02:39;101299.0;;;22.91;68.91
68376;BME280;55318;52.068;5.188;2023-06-19T09:04:16;101301.0;;;22.95;68.23
68376;BME280;55318;52.068;5.188;2023-06-19T09:05:52;101305.0;;;23.01;68.17
68376;BME280;55318;52.068;5.188;2023-06-19T09:09:04;101305.0;;;23.05;67.8
68376;BME280;55318;52.068;5.188;2023-06-19T09:10:41;101305.0;;;23.2;68.77
68376;BME280;55318;52.068;5.188;2023-06-19T09:12:17;101313.0;;;23.43;67.72
68376;BME280;55318;52.068;5.188;2023-06-19T09:15:34;101316.0;;;23.34;67.11
68376;BME280;55318;52.068;5.188;2023-06-19T09:17:13;101312.0;;;23.34;67.27
68376;BME280;55318;52.068;5.188;2023-06-19T09:18:49;101318.0;;;23.43;66.19
68376;BME280;55318;52.068;5.188;2023-06-19T09:20:26;101318.0;;;23.28;66.34
68376;BME280;55318;52.068;5.188;2023-06-19T09:23:41;101323.0;;;23.31;66.66
68376;BME280;55318;52.068;5.188;2023-06-19T09:25:17;101323.0;;;23.42;67.02
68376;BME280;55318;52.068;5.188;2023-06-19T09:27:05;101330.0;;;23.3;66.33
68376;BME280;55318;52.068;5.188;2023-06-19T09:28:42;101330.0;;;23.48;66.72
68376;BME280;55318;52.068;5.188;2023-06-19T09:31:53;101336.0;;;23.43;66.3
68376;BME280;55318;52.068;5.188;2023-06-19T09:33:32;101339.0;;;23.36;65.64
68376;BME280;55318;52.068;5.188;2023-06-19T09:35:08;101340.0;;;23.28;65.41
68376;BME280;55318;52.068;5.188;2023-06-19T09:38:24;101345.0;;;23.42;66.45
68376;BME280;55318;52.068;5.188;2023-06-19T09:40:03;101346.0;;;23.5;67.22
68376;BME280;55318;52.068;5.188;2023-06-19T09:41:40;101339.0;;;23.63;65.89
68376;BME280;55318;52.068;5.188;2023-06-19T09:43:22;101341.0;;;23.67;64.77
68376;BME280;55318;52.068;5.188;2023-06-19T09:46:41;101346.0;;;23.69;65.12
68376;BME280;55318;52.068;5.188;2023-06-19T09:48:24;101345.0;;;23.86;64.69
68376;BME280;55318;52.068;5.188;2023-06-19T09:50:08;101355.0;;;23.9;64.24
68376;BME280;55318;52.068;5.188;2023-06-19T09:51:48;101362.0;;;23.83;64.83
68376;BME280;55318;52.068;5.188;2023-06-19T09:55:03;101364.0;;;23.96;64.5
68376;BME280;55318;52.068;5.188;2023-06-19T09:56:40;101368.0;;;24.29;65.91
68376;BME280;55318;52.068;5.188;2023-06-19T09:58:17;101362.0;;;24.65;64.98
68376;BME280;55318;52.068;5.188;2023-06-19T10:01:33;101370.0;;;24.71;62.66
68376;BME280;55318;52.068;5.188;2023-06-19T10:03:11;101371.0;;;24.84;61.31
68376;BME280;55318;52.068;5.188;2023-06-19T10:04:50;101369.0;;;24.96;62.84
68376;BME280;55318;52.068;5.188;2023-06-19T10:06:27;101365.0;;;25.0;61.08
68376;BME280;55318;52.068;5.188;2023-06-19T10:09:39;101369.0;;;25.12;61.95
68376;BME280;55318;52.068;5.188;2023-06-19T10:11:15;101368.0;;;25.32;61.52
68376;BME280;55318;52.068;5.188;2023-06-19T10:12:53;101366.0;;;25.2;60.35
68376;BME280;55318;52.068;5.188;2023-06-19T10:16:07;101364.0;;;25.13;60.19
68376;BME280;55318;52.068;5.188;2023-06-19T10:18:00;101362.0;;;25.41;59.05
68376;BME280;55318;52.068;5.188;2023-06-19T10:19:37;101365.0;;;25.26;60.15
68376;BME280;55318;52.068;5.188;2023-06-19T10:21:16;101361.0;;;25.3;62.22
68376;BME280;55318;52.068;5.188;2023-06-19T10:24:34;101361.0;;;25.56;61.7
68376;BME280;55318;52.068;5.188;2023-06-19T10:26:15;101371.0;;;25.96;61.06
68376;BME280;55318;52.068;5.188;2023-06-19T10:27:51;101367.0;;;26.12;58.73
68376;BME280;55318;52.068;5.188;2023-06-19T10:29:38;101366.0;;;26.24;57.58
68376;BME280;55318;52.068;5.188;2023-06-19T10:32:51;101373.0;;;26.22;58.31
68376;BME280;55318;52.068;5.188;2023-06-19T10:34:33;101382.0;;;26.18;56.43
68376;BME280;55318;52.068;5.188;2023-06-19T10:36:17;101381.0;;;25.93;57.4
68376;BME280;55318;52.068;5.188;2023-06-19T10:37:55;101381.0;;;25.52;56.71
68376;BME280;55318;52.068;5.188;2023-06-19T10:41:14;101375.0;;;25.63;57.76
68376;BME280;55318;52.068;5.188;2023-06-19T10:42:50;101377.0;;;25.42;57.43
68376;BME280;55318;52.068;5.188;2023-06-19T10:44:27;101368.0;;;25.08;56.85
68376;BME280;55318;52.068;5.188;2023-06-19T10:46:03;101377.0;;;25.53;57.61
68376;BME280;55318;52.068;5.188;2023-06-19T10:49:17;101364.0;;;25.69;58.63
68376;BME280;55318;52.068;5.188;2023-06-19T10:50:56;101365.0;;;25.91;57.05
68376;BME280;55318;52.068;5.188;2023-06-19T10:52:32;101359.0;;;26.07;55.63
68376;BME280;55318;52.068;5.188;2023-06-19T10:55:45;101365.0;;;26.32;55.54
68376;BME280;55318;52.068;5.188;2023-06-19T10:57:27;101365.0;;;26.43;55.72
68376;BME280;55318;52.068;5.188;2023-06-19T10:59:06;101365.0;;;26.52;53.88
68376;BME280;55318;52.068;5.188;2023-06-19T11:00:42;101356.0;;;26.24;53.99
68376;BME280;55318;52.068;5.188;2023-06-19T11:03:54;101361.0;;;26.33;55.87
68376;BME280;55318;52.068;5.188;2023-06-19T11:05:31;101361.0;;;26.28;54.92
68376;BME280;55318;52.068;5.188;2023-06-19T11:07:07;101358.0;;;26.46;54.05
68376;BME280;55318;52.068;5.188;2023-06-19T11:10:28;101358.0;;;26.72;54.2
68376;BME280;55318;52.068;5.188;2023-06-19T11:12:05;101360.0;;;26.79;55.31